Time;durP1;ratioP1;P1;durP2;ratioP2;P2;SDS_P1;SDS_P2;PMS_P1;PMS_P2;Temp;Humidity;BMP_temperature;BMP_pressure;BME280_temperature;BME280_humidity;BME280_pressure;Samples;Min_cycle;Max_cycle;Signal;HPM_P1;HPM_P2
2023/02/19 00:01:32;;;;;;;0.95;0.40;;;;;;;;;;5056148;28;20172;-49
2023/02/19 00:03:59;;;;;;;0.40;0.40;;;;;;;;;;5060920;28;20188;-49
2023/02/19 00:06:26;;;;;;;1.40;0.60;;;;;;;;;;5070026;28;20197;-49
2023/02/19 00:08:52;;;;;;;0.40;0.40;;;;;;;;;;5054083;28;20245;-50
2023/02/19 00:11:20;;;;;;;0.50;0.50;;;;;;;;;;5059832;28;20206;-49
2023/02/19 00:13:47;;;;;;;0.80;0.43;;;;;;;;;;5050835;28;20558;-49
2023/02/19 00:16:14;;;;;;;0.30;0.30;;;;;;;;;;5067816;28;20257;-50
2023/02/19 00:18:40;;;;;;;0.52;0.40;;;;;;;;;;5061389;28;20182;-50
2023/02/19 00:21:06;;;;;;;1.13;0.70;;;;;;;;;;5063370;28;20225;-49
2023/02/19 00:23:33;;;;;;;0.40;0.40;;;;;;;;;;5060766;28;20257;-49
2023/02/19 00:26:09;;;;;;;0.40;0.35;;;;;;;;;;5060973;28;20650;-49
2023/02/19 00:28:36;;;;;;;0.50;0.50;;;;;;;;;;5058573;28;20248;-49
2023/02/19 00:31:16;;;;;;;1.95;0.60;;;;;;;;;;5066834;28;20186;-49
2023/02/19 00:33:42;;;;;;;2.15;0.50;;;;;;;;;;5061974;28;20172;-49
2023/02/19 00:36:08;;;;;;;0.40;0.40;;;;;;;;;;5066322;28;20233;-50
2023/02/19 00:38:38;;;;;;;0.50;0.50;;;;;;;;;;5059748;28;20248;-50
2023/02/19 00:41:17;;;;;;;0.45;0.30;;;;;;;;;;5062551;28;20265;-49
2023/02/19 00:43:44;;;;;;;1.23;0.30;;;;;;;;;;5053827;28;20440;-50
2023/02/19 00:46:10;;;;;;;0.40;0.40;;;;;;;;;;5067861;28;20194;-50
2023/02/19 00:48:35;;;;;;;0.43;0.43;;;;;;;;;;5048503;28;20203;-50
2023/02/19 00:51:02;;;;;;;0.47;0.47;;;;;;;;;;5050201;28;20529;-49
2023/02/19 00:53:28;;;;;;;1.08;0.50;;;;;;;;;;5060552;28;20174;-49
2023/02/19 00:55:54;;;;;;;0.30;0.30;;;;;;;;;;5063758;28;20189;-49
2023/02/19 00:58:20;;;;;;;0.30;0.30;;;;;;;;;;5039873;28;20180;-49
2023/02/19 01:00:46;;;;;;;0.40;0.40;;;;;;;;;;5053468;28;20602;-49
2023/02/19 01:03:12;;;;;;;0.38;0.38;;;;;;;;;;5058020;28;20186;-49
2023/02/19 01:05:38;;;;;;;0.35;0.30;;;;;;;;;;5074636;28;20283;-49
2023/02/19 01:08:04;;;;;;;0.40;0.40;;;;;;;;;;5053259;28;20191;-49
2023/02/19 01:10:30;;;;;;;0.30;0.30;;;;;;;;;;5064037;28;20473;-49
2023/02/19 01:12:56;;;;;;;0.30;0.30;;;;;;;;;;5055278;28;20260;-49
2023/02/19 01:15:21;;;;;;;0.30;0.30;;;;;;;;;;5052183;28;20192;-49
2023/02/19 01:17:47;;;;;;;0.30;0.30;;;;;;;;;;5048669;28;20202;-49
2023/02/19 01:20:13;;;;;;;0.30;0.30;;;;;;;;;;5052878;28;20222;-49
2023/02/19 01:22:39;;;;;;;0.30;0.30;;;;;;;;;;5053539;28;20586;-49
2023/02/19 01:25:05;;;;;;;0.28;0.28;;;;;;;;;;5060575;28;20191;-49
2023/02/19 01:27:31;;;;;;;0.40;0.40;;;;;;;;;;5062024;28;20214;-49
2023/02/19 01:29:57;;;;;;;0.57;0.40;;;;;;;;;;5063831;28;20550;-49
2023/02/19 01:32:23;;;;;;;0.40;0.40;;;;;;;;;;5057044;28;20254;-49
2023/02/19 01:34:49;;;;;;;0.40;0.40;;;;;;;;;;5059775;28;20189;-49
2023/02/19 01:37:15;;;;;;;1.17;0.45;;;;;;;;;;5058300;28;20226;-49
2023/02/19 01:39:41;;;;;;;0.52;0.40;;;;;;;;;;5055588;28;20175;-49
2023/02/19 01:42:12;;;;;;;0.20;0.20;;;;;;;;;;5057564;28;20236;-49
2023/02/19 01:44:38;;;;;;;0.28;0.28;;;;;;;;;;5045234;28;20183;-49
2023/02/19 01:47:04;;;;;;;0.30;0.30;;;;;;;;;;5053261;28;20563;-49
2023/02/19 01:49:34;;;;;;;0.32;0.22;;;;;;;;;;5062216;28;20215;-49
2023/02/19 01:52:03;;;;;;;0.30;0.30;;;;;;;;;;5051370;28;20176;-49
2023/02/19 01:54:30;;;;;;;0.40;0.40;;;;;;;;;;5060938;28;20233;-49
2023/02/19 01:56:57;;;;;;;0.30;0.30;;;;;;;;;;5068210;28;20182;-49
2023/02/19 01:59:22;;;;;;;0.38;0.38;;;;;;;;;;5047123;28;20237;-49
2023/02/19 02:01:49;;;;;;;0.25;0.25;;;;;;;;;;5060893;28;20191;-50
2023/02/19 02:04:15;;;;;;;0.40;0.40;;;;;;;;;;5064299;28;20449;-50
2023/02/19 02:06:49;;;;;;;0.30;0.30;;;;;;;;;;5057140;28;20183;-49
2023/02/19 02:12:00;;;;;;;0.25;0.25;;;;;;;;;;5064324;28;20226;-49
2023/02/19 02:14:28;;;;;;;0.47;0.30;;;;;;;;;;5061151;28;20215;-49
2023/02/19 02:16:57;;;;;;;0.50;0.20;;;;;;;;;;5061224;28;20222;-50
2023/02/19 02:19:41;;;;;;;0.40;0.40;;;;;;;;;;5062346;28;20222;-49
2023/02/19 02:22:16;;;;;;;0.30;0.30;;;;;;;;;;5050199;28;20206;-49
2023/02/19 02:24:48;;;;;;;0.22;0.22;;;;;;;;;;5069918;28;20554;-49
2023/02/19 02:27:27;;;;;;;1.10;0.40;;;;;;;;;;5064891;28;20189;-49
2023/02/19 02:30:11;;;;;;;0.25;0.22;;;;;;;;;;5059130;28;20211;-49
2023/02/19 02:32:52;;;;;;;0.43;0.22;;;;;;;;;;5055224;28;20195;-49
2023/02/19 02:35:21;;;;;;;0.20;0.20;;;;;;;;;;5052263;28;20190;-50
2023/02/19 02:37:48;;;;;;;0.30;0.30;;;;;;;;;;5056314;28;20229;-50
2023/02/19 02:40:14;;;;;;;0.85;0.30;;;;;;;;;;5069814;28;20190;-50
2023/02/19 02:42:40;;;;;;;0.35;0.35;;;;;;;;;;5067443;28;20194;-50
2023/02/19 02:45:34;;;;;;;0.30;0.30;;;;;;;;;;5063097;28;20186;-50
2023/02/19 02:48:07;;;;;;;0.20;0.20;;;;;;;;;;5052235;28;20199;-49
2023/02/19 02:50:36;;;;;;;0.30;0.30;;;;;;;;;;5061506;28;20206;-49
2023/02/19 02:55:52;;;;;;;0.20;0.20;;;;;;;;;;5059490;28;20195;-50
2023/02/19 02:58:20;;;;;;;0.25;0.20;;;;;;;;;;5048373;28;20209;-50
2023/02/19 03:03:32;;;;;;;0.35;0.35;;;;;;;;;;5047577;28;20595;-50
2023/02/19 03:06:01;;;;;;;0.22;0.22;;;;;;;;;;5064024;28;20174;-50
2023/02/19 03:08:30;;;;;;;0.20;0.20;;;;;;;;;;5059013;28;20184;-50
2023/02/19 03:19:19;;;;;;;3.10;0.20;;;;;;;;;;5053274;28;20201;-49
2023/02/19 03:21:49;;;;;;;0.20;0.10;;;;;;;;;;5050577;28;20190;-49
2023/02/19 03:27:01;;;;;;;0.40;0.40;;;;;;;;;;5055112;28;20207;-49
2023/02/19 03:29:29;;;;;;;0.25;0.25;;;;;;;;;;5065838;28;20294;-50
2023/02/19 03:31:57;;;;;;;0.45;0.45;;;;;;;;;;5049988;28;20210;-49
2023/02/19 03:34:26;;;;;;;0.22;0.22;;;;;;;;;;5066478;28;20174;-49
2023/02/19 03:36:55;;;;;;;0.30;0.30;;;;;;;;;;5061191;28;20190;-49
2023/02/19 03:39:22;;;;;;;0.15;0.10;;;;;;;;;;5054192;28;20275;-49
2023/02/19 03:41:52;;;;;;;0.52;0.38;;;;;;;;;;5043435;28;20187;-49
2023/02/19 03:44:24;;;;;;;0.40;0.40;;;;;;;;;;5055792;28;20451;-49
2023/02/19 03:46:50;;;;;;;0.40;0.28;;;;;;;;;;5053655;28;20199;-49
2023/02/19 03:49:22;;;;;;;0.13;0.13;;;;;;;;;;5054141;28;20217;-50
2023/02/19 03:51:56;;;;;;;0.55;0.40;;;;;;;;;;5060866;28;20175;-49
2023/02/19 03:54:28;;;;;;;0.65;0.30;;;;;;;;;;5050818;28;20503;-49
2023/02/19 03:57:03;;;;;;;0.28;0.25;;;;;;;;;;5057687;28;20184;-49
2023/02/19 03:59:43;;;;;;;0.10;0.10;;;;;;;;;;5059197;28;20194;-49
2023/02/19 04:02:11;;;;;;;0.30;0.30;;;;;;;;;;5052872;28;20195;-50
2023/02/19 04:04:39;;;;;;;0.50;0.50;;;;;;;;;;5052125;28;20202;-50
2023/02/19 04:07:05;;;;;;;0.30;0.30;;;;;;;;;;5058027;28;20263;-49
2023/02/19 04:09:36;;;;;;;0.40;0.40;;;;;;;;;;5057540;28;20332;-50
2023/02/19 04:12:02;;;;;;;0.40;0.40;;;;;;;;;;5059914;28;20228;-49
2023/02/19 04:14:32;;;;;;;0.45;0.45;;;;;;;;;;5067911;28;20219;-49
2023/02/19 04:17:02;;;;;;;0.90;0.50;;;;;;;;;;5052031;28;20522;-49
2023/02/19 04:19:30;;;;;;;0.50;0.50;;;;;;;;;;5052585;28;20188;-50
2023/02/19 04:21:56;;;;;;;0.50;0.50;;;;;;;;;;5052482;28;20809;-50
2023/02/19 04:24:27;;;;;;;0.55;0.40;;;;;;;;;;5057928;28;20206;-49
2023/02/19 04:26:54;;;;;;;0.40;0.40;;;;;;;;;;5064530;28;20182;-49
2023/02/19 04:29:20;;;;;;;1.52;0.50;;;;;;;;;;5062777;28;20210;-49
2023/02/19 04:31:45;;;;;;;0.40;0.40;;;;;;;;;;5059897;28;20234;-49
2023/02/19 04:34:12;;;;;;;0.40;0.40;;;;;;;;;;5062406;28;20187;-49
2023/02/19 04:36:38;;;;;;;0.38;0.35;;;;;;;;;;5061467;28;20210;-49
2023/02/19 04:39:04;;;;;;;0.68;0.40;;;;;;;;;;5056630;28;20226;-50
2023/02/19 04:41:29;;;;;;;0.45;0.30;;;;;;;;;;5048763;28;20447;-49
2023/02/19 04:43:55;;;;;;;0.38;0.38;;;;;;;;;;5060868;28;20186;-49
2023/02/19 04:46:21;;;;;;;0.52;0.38;;;;;;;;;;5066356;28;20182;-49
2023/02/19 04:48:47;;;;;;;0.30;0.30;;;;;;;;;;5048084;28;20210;-49
2023/02/19 04:51:13;;;;;;;0.60;0.30;;;;;;;;;;5046006;28;20234;-49
2023/02/19 04:53:39;;;;;;;0.47;0.30;;;;;;;;;;5045594;28;20543;-49
2023/02/19 04:56:06;;;;;;;0.20;0.20;;;;;;;;;;5056350;28;20183;-49
2023/02/19 04:58:32;;;;;;;0.22;0.22;;;;;;;;;;5047546;28;20251;-49
2023/02/19 05:00:57;;;;;;;0.30;0.30;;;;;;;;;;5066067;28;20303;-49
2023/02/19 05:03:23;;;;;;;0.30;0.30;;;;;;;;;;5063691;28;20190;-49
2023/02/19 05:05:49;;;;;;;0.30;0.30;;;;;;;;;;5068255;28;20182;-49
2023/02/19 05:08:15;;;;;;;0.65;0.40;;;;;;;;;;5054137;28;20551;-50
2023/02/19 05:10:41;;;;;;;0.30;0.30;;;;;;;;;;5056348;28;20233;-50
2023/02/19 05:13:07;;;;;;;0.40;0.40;;;;;;;;;;5051419;28;20267;-50
2023/02/19 05:15:33;;;;;;;0.32;0.32;;;;;;;;;;5060739;28;20187;-49
2023/02/19 05:17:59;;;;;;;0.82;0.40;;;;;;;;;;5046509;28;20176;-49
2023/02/19 05:20:25;;;;;;;0.40;0.40;;;;;;;;;;5042594;28;20187;-49
2023/02/19 05:22:51;;;;;;;0.40;0.40;;;;;;;;;;5049100;28;20456;-49
2023/02/19 05:25:17;;;;;;;0.28;0.28;;;;;;;;;;5061753;28;20183;-49
2023/02/19 05:27:42;;;;;;;0.30;0.30;;;;;;;;;;5047373;28;20205;-49
2023/02/19 05:30:09;;;;;;;0.30;0.30;;;;;;;;;;5057027;28;20285;-49
2023/02/19 05:32:36;;;;;;;0.38;0.30;;;;;;;;;;5063622;28;20198;-49
2023/02/19 05:35:02;;;;;;;0.30;0.30;;;;;;;;;;5062504;28;20463;-49
2023/02/19 05:37:27;;;;;;;0.22;0.22;;;;;;;;;;5059430;28;20183;-49
2023/02/19 05:39:53;;;;;;;0.28;0.28;;;;;;;;;;5062953;28;20260;-49
2023/02/19 05:42:19;;;;;;;0.35;0.30;;;;;;;;;;5053290;28;20274;-49
2023/02/19 05:44:45;;;;;;;0.73;0.40;;;;;;;;;;5065941;28;20210;-49
2023/02/19 05:47:11;;;;;;;0.40;0.40;;;;;;;;;;5062779;28;20492;-49
2023/02/19 05:49:37;;;;;;;0.20;0.20;;;;;;;;;;5050436;28;20262;-49
2023/02/19 05:52:03;;;;;;;0.30;0.30;;;;;;;;;;5044131;28;20234;-49
2023/02/19 05:54:29;;;;;;;0.30;0.30;;;;;;;;;;5059715;28;20183;-49
2023/02/19 05:56:55;;;;;;;0.22;0.22;;;;;;;;;;5051560;28;20175;-49
2023/02/19 05:59:23;;;;;;;0.30;0.30;;;;;;;;;;5046061;28;20292;-49
2023/02/19 06:01:52;;;;;;;0.40;0.40;;;;;;;;;;5060280;28;20232;-49
2023/02/19 06:04:19;;;;;;;0.93;0.40;;;;;;;;;;5061156;28;20252;-49
2023/02/19 06:06:45;;;;;;;0.20;0.20;;;;;;;;;;5059883;28;20183;-49
2023/02/19 06:09:11;;;;;;;0.28;0.20;;;;;;;;;;5041790;28;20599;-49
2023/02/19 06:11:37;;;;;;;0.43;0.43;;;;;;;;;;5040480;28;20222;-49
2023/02/19 06:14:03;;;;;;;0.30;0.30;;;;;;;;;;5051665;28;20179;-49
2023/02/19 06:16:31;;;;;;;0.30;0.30;;;;;;;;;;5058186;28;20716;-49
2023/02/19 06:18:57;;;;;;;0.30;0.30;;;;;;;;;;5041896;28;20210;-49
2023/02/19 06:21:22;;;;;;;0.30;0.30;;;;;;;;;;5053663;28;20218;-49
2023/02/19 06:23:49;;;;;;;0.30;0.30;;;;;;;;;;5052518;28;20215;-48
2023/02/19 06:26:19;;;;;;;0.52;0.30;;;;;;;;;;5061062;28;20183;-48
2023/02/19 06:28:45;;;;;;;0.30;0.30;;;;;;;;;;5056562;28;20202;-48
2023/02/19 06:31:11;;;;;;;0.20;0.20;;;;;;;;;;5053066;28;20183;-48
2023/02/19 06:33:41;;;;;;;0.28;0.22;;;;;;;;;;5049224;28;20190;-48
2023/02/19 06:36:10;;;;;;;0.40;0.40;;;;;;;;;;5056975;28;20453;-48
2023/02/19 06:38:36;;;;;;;0.30;0.30;;;;;;;;;;5055331;28;20688;-48
2023/02/19 06:41:03;;;;;;;0.25;0.22;;;;;;;;;;5067717;28;20254;-48
2023/02/19 06:43:29;;;;;;;0.95;0.30;;;;;;;;;;5048375;28;20549;-48
2023/02/19 06:45:57;;;;;;;0.28;0.28;;;;;;;;;;5059861;28;20190;-48
2023/02/19 06:48:23;;;;;;;0.40;0.30;;;;;;;;;;5053178;28;20214;-48
2023/02/19 06:50:49;;;;;;;0.20;0.20;;;;;;;;;;5054623;28;20210;-48
2023/02/19 06:53:15;;;;;;;0.30;0.20;;;;;;;;;;5056501;28;20187;-48
2023/02/19 06:55:41;;;;;;;0.30;0.20;;;;;;;;;;5059344;28;20198;-48
2023/02/19 06:58:07;;;;;;;0.38;0.28;;;;;;;;;;5055063;28;20567;-48
2023/02/19 07:00:33;;;;;;;0.30;0.30;;;;;;;;;;5051172;28;20194;-48
2023/02/19 07:03:00;;;;;;;0.38;0.38;;;;;;;;;;5057056;28;20554;-48
2023/02/19 07:05:25;;;;;;;0.10;0.10;;;;;;;;;;5064804;28;20218;-48
2023/02/19 07:07:51;;;;;;;0.28;0.28;;;;;;;;;;5057918;28;20195;-48
2023/02/19 07:10:17;;;;;;;0.30;0.30;;;;;;;;;;5057021;28;20219;-48
2023/02/19 07:12:43;;;;;;;0.10;0.10;;;;;;;;;;5060260;28;20379;-48
2023/02/19 07:15:09;;;;;;;0.38;0.35;;;;;;;;;;5068472;28;20182;-48
2023/02/19 07:17:35;;;;;;;0.68;0.20;;;;;;;;;;5062832;28;20596;-48
2023/02/19 07:20:01;;;;;;;0.52;0.25;;;;;;;;;;5069195;28;20829;-48
2023/02/19 07:22:27;;;;;;;1.00;0.20;;;;;;;;;;5056076;28;20190;-48
2023/02/19 07:24:53;;;;;;;0.30;0.30;;;;;;;;;;5049915;28;20567;-48
2023/02/19 07:27:19;;;;;;;0.20;0.20;;;;;;;;;;5053883;28;20267;-48
2023/02/19 07:29:45;;;;;;;0.22;0.22;;;;;;;;;;5055942;28;20663;-48
2023/02/19 07:32:11;;;;;;;0.70;0.30;;;;;;;;;;5061545;28;20183;-48
2023/02/19 07:34:37;;;;;;;0.20;0.20;;;;;;;;;;5062787;28;20183;-48
2023/02/19 07:37:02;;;;;;;0.50;0.30;;;;;;;;;;5058580;28;20195;-48
2023/02/19 07:39:28;;;;;;;0.25;0.25;;;;;;;;;;5054784;28;20182;-48
2023/02/19 07:41:54;;;;;;;0.13;0.13;;;;;;;;;;5050486;28;20183;-48
2023/02/19 07:44:20;;;;;;;0.30;0.20;;;;;;;;;;5062596;28;20214;-48
2023/02/19 07:46:46;;;;;;;0.30;0.30;;;;;;;;;;5063755;28;20198;-48
2023/02/19 07:49:12;;;;;;;0.40;0.30;;;;;;;;;;5058538;28;20235;-48
2023/02/19 07:51:38;;;;;;;0.15;0.15;;;;;;;;;;5055522;28;20558;-48
2023/02/19 07:54:04;;;;;;;0.30;0.30;;;;;;;;;;5060628;28;20236;-48
2023/02/19 07:56:30;;;;;;;0.22;0.22;;;;;;;;;;5046188;28;20646;-48
2023/02/19 07:58:56;;;;;;;0.20;0.20;;;;;;;;;;5044250;28;20176;-48
2023/02/19 08:04:08;;;;;;;0.20;0.20;;;;;;;;;;5050351;28;20228;-48
2023/02/19 08:06:34;;;;;;;0.20;0.20;;;;;;;;;;5056652;28;20192;-48
2023/02/19 08:09:00;;;;;;;0.20;0.20;;;;;;;;;;5060129;28;20178;-49
2023/02/19 08:14:11;;;;;;;0.40;0.20;;;;;;;;;;5050665;28;20580;-49
2023/02/19 08:16:36;;;;;;;0.20;0.20;;;;;;;;;;5058103;28;20183;-49
2023/02/19 08:19:02;;;;;;;0.20;0.20;;;;;;;;;;5047526;28;20184;-49
2023/02/19 08:21:28;;;;;;;0.30;0.30;;;;;;;;;;5056914;28;20631;-49
2023/02/19 08:23:54;;;;;;;0.20;0.20;;;;;;;;;;5063023;28;20176;-49
2023/02/19 08:26:20;;;;;;;0.30;0.20;;;;;;;;;;5060803;28;20509;-49
2023/02/19 08:28:47;;;;;;;0.30;0.30;;;;;;;;;;5063969;28;20677;-49
2023/02/19 08:31:13;;;;;;;0.57;0.30;;;;;;;;;;5046525;28;20601;-49
2023/02/19 08:33:39;;;;;;;0.13;0.13;;;;;;;;;;5052332;28;20178;-49
2023/02/19 08:36:06;;;;;;;0.22;0.22;;;;;;;;;;5059115;28;20229;-49
2023/02/19 08:38:34;;;;;;;0.10;0.10;;;;;;;;;;5064751;28;20208;-49
2023/02/19 08:41:02;;;;;;;1.98;0.20;;;;;;;;;;5062310;28;20217;-49
2023/02/19 08:43:28;;;;;;;0.40;0.40;;;;;;;;;;5049213;28;20522;-49
2023/02/19 08:45:54;;;;;;;0.38;0.30;;;;;;;;;;5065559;28;20190;-49
2023/02/19 08:48:21;;;;;;;0.80;0.38;;;;;;;;;;5056396;28;20697;-50
2023/02/19 08:50:52;;;;;;;0.57;0.22;;;;;;;;;;5057369;28;20203;-49
2023/02/19 08:53:18;;;;;;;0.38;0.38;;;;;;;;;;5056653;28;20182;-49
2023/02/19 08:55:44;;;;;;;1.23;0.38;;;;;;;;;;5057393;28;20555;-49
2023/02/19 08:58:10;;;;;;;0.50;0.30;;;;;;;;;;5041730;28;20183;-49
2023/02/19 09:00:36;;;;;;;1.35;0.30;;;;;;;;;;5071895;28;20182;-49
2023/02/19 09:03:02;;;;;;;0.30;0.30;;;;;;;;;;5046448;28;20252;-50
2023/02/19 09:05:28;;;;;;;0.98;0.40;;;;;;;;;;5057072;28;20187;-49
2023/02/19 09:07:54;;;;;;;0.40;0.30;;;;;;;;;;5054479;28;20198;-49
2023/02/19 09:10:20;;;;;;;1.77;0.38;;;;;;;;;;5063413;28;20687;-50
2023/02/19 09:12:45;;;;;;;4.50;0.50;;;;;;;;;;5043631;28;20267;-50
2023/02/19 09:15:11;;;;;;;1.58;0.50;;;;;;;;;;5043906;28;20198;-50
2023/02/19 09:17:37;;;;;;;1.30;0.47;;;;;;;;;;5052610;28;20187;-50
2023/02/19 09:20:03;;;;;;;1.05;0.50;;;;;;;;;;5048764;28;20345;-50
2023/02/19 09:22:29;;;;;;;0.50;0.50;;;;;;;;;;5063750;28;20176;-50
2023/02/19 09:24:55;;;;;;;1.10;0.60;;;;;;;;;;5065158;28;20214;-50
2023/02/19 09:27:21;;;;;;;0.57;0.40;;;;;;;;;;5068031;28;20189;-50
2023/02/19 09:29:47;;;;;;;1.33;0.50;;;;;;;;;;5053858;28;20495;-50
2023/02/19 09:32:13;;;;;;;1.73;0.50;;;;;;;;;;5055470;28;20187;-50
2023/02/19 09:34:39;;;;;;;2.45;0.55;;;;;;;;;;5059258;28;20186;-49
2023/02/19 09:37:06;;;;;;;2.35;0.52;;;;;;;;;;5057730;28;20217;-49
2023/02/19 09:39:32;;;;;;;1.85;0.60;;;;;;;;;;5055802;28;20190;-49
2023/02/19 09:42:00;;;;;;;0.50;0.40;;;;;;;;;;5048486;28;20199;-49
2023/02/19 09:44:28;;;;;;;2.30;0.57;;;;;;;;;;5062297;28;20200;-49
2023/02/19 09:46:55;;;;;;;2.80;0.40;;;;;;;;;;5059640;28;20178;-49
2023/02/19 09:49:29;;;;;;;1.55;0.50;;;;;;;;;;5049492;28;20235;-49
2023/02/19 09:51:57;;;;;;;0.60;0.50;;;;;;;;;;5052726;28;20179;-48
2023/02/19 09:54:24;;;;;;;1.08;0.63;;;;;;;;;;5055730;28;20511;-48
2023/02/19 09:56:50;;;;;;;0.68;0.40;;;;;;;;;;5059367;28;20202;-48
2023/02/19 09:59:21;;;;;;;0.45;0.40;;;;;;;;;;5048232;28;20179;-48
2023/02/19 10:01:48;;;;;;;0.50;0.50;;;;;;;;;;5069863;28;20227;-48
2023/02/19 10:04:14;;;;;;;1.15;0.55;;;;;;;;;;5063580;28;20195;-48
2023/02/19 10:06:40;;;;;;;1.95;0.57;;;;;;;;;;5065794;28;20241;-48
2023/02/19 10:09:09;;;;;;;1.60;0.43;;;;;;;;;;5055701;28;20179;-48
2023/02/19 10:11:35;;;;;;;0.50;0.45;;;;;;;;;;5063057;28;20554;-48
2023/02/19 10:14:08;;;;;;;1.33;0.70;;;;;;;;;;5054693;28;20259;-48
2023/02/19 10:16:35;;;;;;;1.65;0.40;;;;;;;;;;5061972;28;20172;-48
2023/02/19 10:19:00;;;;;;;1.42;0.57;;;;;;;;;;5058434;28;20186;-48
2023/02/19 10:21:27;;;;;;;3.08;0.60;;;;;;;;;;5054862;28;20299;-48
2023/02/19 10:23:55;;;;;;;0.60;0.50;;;;;;;;;;5058707;28;20175;-48
2023/02/19 10:26:21;;;;;;;1.17;0.60;;;;;;;;;;5062790;28;20191;-48
2023/02/19 10:28:47;;;;;;;1.02;0.70;;;;;;;;;;5060679;28;20676;-48
2023/02/19 10:31:16;;;;;;;2.83;0.52;;;;;;;;;;5065081;28;20294;-48
2023/02/19 10:33:56;;;;;;;1.40;0.70;;;;;;;;;;5065794;28;20184;-48
2023/02/19 10:36:26;;;;;;;0.40;0.40;;;;;;;;;;5066364;28;20214;-48
2023/02/19 10:38:52;;;;;;;1.73;0.60;;;;;;;;;;5064668;28;20490;-48
2023/02/19 10:41:20;;;;;;;1.85;0.60;;;;;;;;;;5058843;28;20743;-48
2023/02/19 10:43:53;;;;;;;1.27;0.50;;;;;;;;;;5066356;28;20561;-49
2023/02/19 10:46:27;;;;;;;1.60;0.60;;;;;;;;;;5047493;28;20184;-49
2023/02/19 10:48:53;;;;;;;2.10;0.77;;;;;;;;;;5059694;28;20244;-49
2023/02/19 10:51:24;;;;;;;0.77;0.60;;;;;;;;;;5054908;28;20274;-49
2023/02/19 10:53:51;;;;;;;1.38;0.90;;;;;;;;;;5056882;28;20547;-49
2023/02/19 10:56:24;;;;;;;0.60;0.60;;;;;;;;;;5058022;28;20259;-49
2023/02/19 10:58:50;;;;;;;2.67;0.75;;;;;;;;;;5049168;28;20212;-49
2023/02/19 11:01:20;;;;;;;1.88;0.90;;;;;;;;;;5052901;28;20211;-49
2023/02/19 11:03:47;;;;;;;2.15;0.93;;;;;;;;;;5051181;28;20563;-48
2023/02/19 11:06:13;;;;;;;4.28;0.88;;;;;;;;;;5051442;28;20613;-48
2023/02/19 11:08:55;;;;;;;2.55;0.90;;;;;;;;;;5058928;28;20194;-48
2023/02/19 11:11:22;;;;;;;3.35;0.95;;;;;;;;;;5062982;28;20186;-48
2023/02/19 11:13:48;;;;;;;2.75;0.90;;;;;;;;;;5049740;28;20610;-48
2023/02/19 11:16:14;;;;;;;2.75;1.05;;;;;;;;;;5056238;28;20209;-49
2023/02/19 11:18:41;;;;;;;1.23;0.77;;;;;;;;;;5060652;28;20236;-49
2023/02/19 11:21:20;;;;;;;2.58;1.20;;;;;;;;;;5053366;28;20206;-49
2023/02/19 11:23:46;;;;;;;4.82;0.98;;;;;;;;;;5049384;28;20182;-49
2023/02/19 11:26:17;;;;;;;4.07;1.48;;;;;;;;;;5048112;28;20188;-49
2023/02/19 11:28:43;;;;;;;4.25;1.23;;;;;;;;;;5059485;28;20222;-49
2023/02/19 11:31:18;;;;;;;1.58;0.90;;;;;;;;;;5066693;28;20206;-49
2023/02/19 11:33:50;;;;;;;2.22;0.80;;;;;;;;;;5062877;28;20202;-49
2023/02/19 11:36:19;;;;;;;3.35;1.27;;;;;;;;;;5060674;28;20183;-49
2023/02/19 11:38:45;;;;;;;1.92;1.27;;;;;;;;;;5057492;28;20277;-49
2023/02/19 11:41:18;;;;;;;1.35;0.90;;;;;;;;;;5059064;28;20537;-49
2023/02/19 11:43:52;;;;;;;3.15;1.20;;;;;;;;;;5057289;28;20230;-49
2023/02/19 11:46:37;;;;;;;3.20;1.50;;;;;;;;;;5059939;28;20188;-49
2023/02/19 11:49:20;;;;;;;4.18;1.38;;;;;;;;;;5050577;28;20259;-49
2023/02/19 11:51:51;;;;;;;1.60;1.10;;;;;;;;;;5060511;28;20187;-49
2023/02/19 11:54:31;;;;;;;3.17;1.35;;;;;;;;;;5053558;28;20183;-49
2023/02/19 11:57:15;;;;;;;4.90;1.50;;;;;;;;;;5045603;28;20502;-49
2023/02/19 11:59:52;;;;;;;5.18;1.30;;;;;;;;;;5056120;28;20215;-49
2023/02/19 12:02:37;;;;;;;2.85;1.33;;;;;;;;;;5060261;28;20247;-49
2023/02/19 12:05:22;;;;;;;3.00;1.67;;;;;;;;;;5054923;28;20554;-49
2023/02/19 12:07:47;;;;;;;2.70;1.20;;;;;;;;;;5058573;28;20210;-49
2023/02/19 12:10:21;;;;;;;5.25;1.20;;;;;;;;;;5054333;28;20242;-49
2023/02/19 12:12:50;;;;;;;5.75;1.38;;;;;;;;;;5059928;28;20221;-49
2023/02/19 12:15:35;;;;;;;2.20;1.08;;;;;;;;;;5059266;28;20270;-49
2023/02/19 12:18:18;;;;;;;2.80;1.20;;;;;;;;;;5059533;28;20203;-49
2023/02/19 12:20:53;;;;;;;3.35;1.20;;;;;;;;;;5053745;28;20197;-48
2023/02/19 12:23:32;;;;;;;2.55;1.10;;;;;;;;;;5056270;28;20218;-48
2023/02/19 12:26:02;;;;;;;2.17;1.20;;;;;;;;;;5056659;28;20182;-48
2023/02/19 12:28:37;;;;;;;2.10;1.35;;;;;;;;;;5063378;28;20260;-48
2023/02/19 12:31:03;;;;;;;3.33;1.58;;;;;;;;;;5053776;28;20307;-48
2023/02/19 12:33:44;;;;;;;5.40;1.50;;;;;;;;;;5063565;28;20597;-48
2023/02/19 12:36:10;;;;;;;2.85;1.35;;;;;;;;;;5062579;28;20174;-48
2023/02/19 12:38:43;;;;;;;5.10;1.40;;;;;;;;;;5048098;28;20774;-48
2023/02/19 12:41:23;;;;;;;3.30;1.88;;;;;;;;;;5061068;28;20978;-48
2023/02/19 12:43:58;;;;;;;2.22;1.33;;;;;;;;;;5055533;28;20467;-48
2023/02/19 12:46:38;;;;;;;3.10;1.40;;;;;;;;;;5049347;28;20272;-49
2023/02/19 12:49:16;;;;;;;2.72;1.23;;;;;;;;;;5060417;28;20194;-49
2023/02/19 12:51:47;;;;;;;3.55;1.52;;;;;;;;;;5064159;28;20512;-49
2023/02/19 12:54:22;;;;;;;3.30;1.25;;;;;;;;;;5051070;28;20184;-49
2023/02/19 12:56:56;;;;;;;4.38;1.50;;;;;;;;;;5054973;28;20178;-49
2023/02/19 12:59:26;;;;;;;3.70;1.23;;;;;;;;;;5048553;28;20661;-49
2023/02/19 13:01:56;;;;;;;2.95;1.38;;;;;;;;;;5046713;28;20513;-49
2023/02/19 13:04:24;;;;;;;1.92;1.15;;;;;;;;;;5049864;28;20188;-49
2023/02/19 13:06:56;;;;;;;3.10;1.20;;;;;;;;;;5060967;28;20468;-49
2023/02/19 13:09:32;;;;;;;1.60;1.40;;;;;;;;;;5061665;28;20224;-49
2023/02/19 13:12:05;;;;;;;1.85;1.20;;;;;;;;;;5060358;28;20577;-49
2023/02/19 13:14:36;;;;;;;2.10;1.17;;;;;;;;;;5046384;28;20190;-49
2023/02/19 13:17:24;;;;;;;3.80;1.58;;;;;;;;;;5057800;28;20189;-49
2023/02/19 13:19:53;;;;;;;2.70;1.10;;;;;;;;;;5052333;28;20254;-49
2023/02/19 13:25:35;;;;;;;1.23;0.95;;;;;;;;;;5063524;28;20821;-50
2023/02/19 13:28:10;;;;;;;2.80;1.20;;;;;;;;;;5045320;28;20205;-50
2023/02/19 13:30:39;;;;;;;3.72;1.20;;;;;;;;;;5062110;28;20206;-50
2023/02/19 13:33:22;;;;;;;2.03;1.20;;;;;;;;;;5050978;28;20195;-50
2023/02/19 13:35:55;;;;;;;2.33;1.02;;;;;;;;;;5049838;28;20425;-50
2023/02/19 13:38:20;;;;;;;3.40;1.55;;;;;;;;;;5053928;28;20627;-50
2023/02/19 13:40:57;;;;;;;1.88;1.00;;;;;;;;;;5061304;28;20194;-50
2023/02/19 13:43:33;;;;;;;1.95;1.05;;;;;;;;;;5060050;28;20821;-51
2023/02/19 13:46:10;;;;;;;1.77;1.15;;;;;;;;;;5055695;28;20179;-50
2023/02/19 13:48:37;;;;;;;2.40;1.10;;;;;;;;;;5063047;28;20185;-50
2023/02/19 13:51:12;;;;;;;3.05;1.35;;;;;;;;;;5054619;28;20617;-50
2023/02/19 13:53:42;;;;;;;2.53;1.30;;;;;;;;;;5060933;28;20187;-50
2023/02/19 13:56:27;;;;;;;2.70;1.10;;;;;;;;;;5061306;28;20261;-50
2023/02/19 13:58:56;;;;;;;2.35;1.30;;;;;;;;;;5059525;28;20327;-50
2023/02/19 14:01:41;;;;;;;1.98;0.80;;;;;;;;;;5044189;28;20232;-49
2023/02/19 14:04:09;;;;;;;3.40;1.00;;;;;;;;;;5050238;28;20590;-49
2023/02/19 14:06:53;;;;;;;1.65;0.95;;;;;;;;;;5049750;28;20594;-50
2023/02/19 14:09:42;;;;;;;1.38;1.00;;;;;;;;;;5061793;28;20253;-49
2023/02/19 14:12:09;;;;;;;3.33;1.40;;;;;;;;;;5048756;28;20225;-50
2023/02/19 14:14:34;;;;;;;2.15;1.10;;;;;;;;;;5060617;28;20225;-50
2023/02/19 14:17:04;;;;;;;4.10;1.60;;;;;;;;;;5060021;28;20562;-49
2023/02/19 14:20:09;;;;;;;3.05;1.20;;;;;;;;;;5048856;28;20234;-49
2023/02/19 14:22:55;;;;;;;4.05;1.15;;;;;;;;;;5037034;28;20195;-49
2023/02/19 14:25:30;;;;;;;2.53;1.20;;;;;;;;;;5040613;28;20187;-49
2023/02/19 14:28:11;;;;;;;2.65;1.40;;;;;;;;;;5053962;28;20317;-49
2023/02/19 14:30:46;;;;;;;3.03;1.50;;;;;;;;;;5059615;28;20206;-49
2023/02/19 14:33:14;;;;;;;4.25;1.20;;;;;;;;;;5065124;28;20211;-49
2023/02/19 14:35:42;;;;;;;2.55;1.10;;;;;;;;;;5064479;28;20174;-49
2023/02/19 14:38:14;;;;;;;4.50;1.17;;;;;;;;;;5061939;28;20447;-49
2023/02/19 14:40:41;;;;;;;4.75;1.30;;;;;;;;;;5062589;28;20186;-49
2023/02/19 14:43:11;;;;;;;2.10;1.20;;;;;;;;;;5044222;28;20564;-49
2023/02/19 14:45:40;;;;;;;1.95;1.10;;;;;;;;;;5053243;28;20559;-49
2023/02/19 14:48:09;;;;;;;3.35;1.20;;;;;;;;;;5061150;28;20191;-49
2023/02/19 14:50:35;;;;;;;1.98;1.20;;;;;;;;;;5049659;28;20212;-49
2023/02/19 14:53:03;;;;;;;2.08;1.30;;;;;;;;;;5041608;28;20203;-49
2023/02/19 14:55:34;;;;;;;1.35;1.00;;;;;;;;;;5062143;28;20187;-49
2023/02/19 14:58:02;;;;;;;3.28;1.30;;;;;;;;;;5045887;28;20190;-49
2023/02/19 15:00:29;;;;;;;2.58;1.23;;;;;;;;;;5051578;28;20191;-49
2023/02/19 15:02:56;;;;;;;1.67;1.15;;;;;;;;;;5046823;28;20190;-49
2023/02/19 15:05:30;;;;;;;2.80;1.15;;;;;;;;;;5067172;28;20186;-49
2023/02/19 15:08:01;;;;;;;1.98;1.00;;;;;;;;;;5065710;28;20189;-49
2023/02/19 15:10:28;;;;;;;3.05;1.20;;;;;;;;;;5058100;28;20214;-49
2023/02/19 15:12:55;;;;;;;1.45;1.15;;;;;;;;;;5061722;28;20567;-49
2023/02/19 15:15:22;;;;;;;1.33;1.00;;;;;;;;;;5060109;28;20175;-49
2023/02/19 15:17:49;;;;;;;2.13;0.93;;;;;;;;;;5070577;28;20221;-49
2023/02/19 15:20:19;;;;;;;1.15;1.00;;;;;;;;;;5056302;28;20187;-49
2023/02/19 15:22:46;;;;;;;2.78;1.00;;;;;;;;;;5060352;28;20202;-49